Kezdőlap
METAR-TAF:

METAR-TAF

Repülőterek :

Jekatyerinburg, Oroszország

földrajzi szélesség: 56-50N, földrajzi hosszúság: 060-38E, magasság: 237 m

Jelenlegi meteorológiai megfigyelések

A jelentés 28 perccel ezelõtt készült, 23:30 UTC
Nyugat-délnyugati szél 12 kt
Hőmérséklet -5°C
Páratartalom 58%
Légköri nyomás 1030 hPa
Látótávolság 10 km, vagy több
felhőtlen 1500 m magasságban, és nincs gomolyfelhõ

METAR: USSS 142330Z 25006MPS CAVOK M05/M12 Q1030 R26R/150050 NOSIG RMK QFE752/1002

Idő: 04:58 (23:58 UTC)

Előrejelzés

A jelentés 1 órával és 7 perccel ezelõtt készült, 22:51 UTC
Az előrejelzés 15-én 00 óra UTC és 15-én 24 óra UTC között érvényes
Nyugat-délnyugati szél 12 kt széllökések: 29 kt
Látótávolság 10 km, vagy több
Szakadozott felhőzet 3000 lábon

TAF: USSS 142251Z 1500/1524 24006G15MPS 9999 BKN030

Meteorológiai megfigyelések és előrejelzések több, mint 4000 repülőtéren (METAR és TAF jelentéseket).

A térképen piros és sárga pontok jelzik az elérhető meteorológiai állomásokat.

Mozgassa az egeret a pont fölött, hogy megjelenjen az állomás neve.

Azután kattintson az időjárási megfigyelések és előrejelzések megtekintéséhez.

A térkép megváltoztatása: kattintson a fekete keresztel jelölt zöld gombra ráközelítéshez, a vonallal jelölt zöld gombra távolításhoz, vagy a zöld nyilakra a szomszédos térképek eléréséhez.


METAR-TAF: